createdAt,value
2022-09-09T00:01:10.307Z,2.65
2022-09-09T00:03:46.981Z,2.20
2022-09-09T00:06:24.944Z,2.53
2022-09-09T00:09:10.602Z,2.38
2022-09-09T00:11:47.715Z,2.20
2022-09-09T00:14:41.477Z,2.25
2022-09-09T00:17:18.426Z,2.20
2022-09-09T00:19:51.663Z,1.80
2022-09-09T00:22:22.182Z,2.20
2022-09-09T00:24:54.881Z,2.10
2022-09-09T00:27:35.233Z,2.40
2022-09-09T00:30:20.726Z,2.05
2022-09-09T00:32:49.876Z,2.25
2022-09-09T00:35:30.415Z,2.35
2022-09-09T00:38:02.625Z,2.15
2022-09-09T00:40:36.274Z,2.38
2022-09-09T00:43:26.790Z,2.40
2022-09-09T00:45:57.113Z,2.83
2022-09-09T00:48:37.341Z,2.33
2022-09-09T00:51:24.901Z,2.53
2022-09-09T00:54:11.869Z,2.38
2022-09-09T00:57:09.345Z,2.30
2022-09-09T00:59:53.591Z,2.70
2022-09-09T01:02:29.800Z,2.42
2022-09-09T01:05:13.839Z,2.80
2022-09-09T01:07:47.141Z,3.17
2022-09-09T01:10:40.370Z,3.17
2022-09-09T01:13:17.717Z,4.05
2022-09-09T01:15:47.613Z,3.03
2022-09-09T01:18:21.294Z,3.17
2022-09-09T01:20:53.047Z,3.13
2022-09-09T01:23:33.286Z,3.50
2022-09-09T01:26:15.640Z,3.47
2022-09-09T01:28:47.665Z,3.03
2022-09-09T01:31:22.544Z,3.55
2022-09-09T01:33:51.278Z,3.38
2022-09-09T01:36:44.352Z,2.83
2022-09-09T01:39:13.578Z,3.17
2022-09-09T01:41:42.128Z,3.20
2022-09-09T01:44:13.338Z,3.40
2022-09-09T01:46:44.769Z,3.47
2022-09-09T01:49:20.737Z,3.28
2022-09-09T01:51:53.419Z,3.70
2022-09-09T01:54:30.072Z,4.03
2022-09-09T01:57:27.939Z,4.05
2022-09-09T02:00:01.700Z,4.22
2022-09-09T02:02:40.159Z,4.07
2022-09-09T02:05:36.815Z,3.30
2022-09-09T02:08:21.611Z,3.25
2022-09-09T02:11:02.875Z,3.20
2022-09-09T02:13:40.754Z,3.30
2022-09-09T02:16:30.877Z,2.55
2022-09-09T02:19:01.677Z,2.25
2022-09-09T02:21:45.050Z,2.67
2022-09-09T02:24:15.771Z,2.90
2022-09-09T02:26:53.884Z,2.53
2022-09-09T02:29:27.752Z,2.58
2022-09-09T02:31:59.270Z,1.95
2022-09-09T02:34:35.716Z,2.33
2022-09-09T02:37:06.791Z,2.42
2022-09-09T02:39:34.497Z,1.92
2022-09-09T02:42:05.491Z,2.67
2022-09-09T02:44:34.100Z,2.67
2022-09-09T02:47:02.454Z,2.03
2022-09-09T02:50:03.545Z,2.58
2022-09-09T02:52:37.307Z,2.72
2022-09-09T02:55:40.839Z,2.70
2022-09-09T02:58:14.337Z,2.67
2022-09-09T03:00:43.153Z,2.72
2022-09-09T03:03:11.074Z,2.70
2022-09-09T03:05:39.698Z,3.08
2022-09-09T03:08:07.869Z,3.17
2022-09-09T03:10:36.144Z,4.28
2022-09-09T03:13:06.289Z,3.80
2022-09-09T03:15:38.513Z,3.45
2022-09-09T03:18:07.776Z,3.88
2022-09-09T03:20:35.508Z,3.53
2022-09-09T03:23:03.595Z,3.72
2022-09-09T03:25:31.187Z,3.25
2022-09-09T03:27:58.792Z,3.45
2022-09-09T03:30:28.539Z,3.22
2022-09-09T03:32:57.919Z,3.75
2022-09-09T03:35:30.706Z,3.33
2022-09-09T03:37:59.321Z,3.67
2022-09-09T03:40:27.476Z,3.13
2022-09-09T03:42:55.729Z,3.03
2022-09-09T03:45:23.727Z,3.30
2022-09-09T03:47:51.318Z,3.65
2022-09-09T03:50:19.445Z,3.67
2022-09-09T03:52:49.123Z,3.78
2022-09-09T03:55:21.702Z,3.95
2022-09-09T03:57:49.604Z,3.85
2022-09-09T04:00:17.742Z,3.50
2022-09-09T04:02:50.716Z,3.95
2022-09-09T04:05:18.905Z,3.53
2022-09-09T04:07:48.367Z,3.17
2022-09-09T04:10:16.848Z,4.28
2022-09-09T04:12:48.954Z,3.60
2022-09-09T04:15:19.672Z,3.80
2022-09-09T04:17:47.993Z,3.67
2022-09-09T04:20:15.774Z,3.40
2022-09-09T04:22:43.495Z,3.88
2022-09-09T04:25:11.059Z,4.45
2022-09-09T04:27:38.667Z,4.03
2022-09-09T04:30:08.543Z,4.18
2022-09-09T04:32:38.308Z,3.63
2022-09-09T04:35:06.878Z,4.10
2022-09-09T04:37:35.666Z,3.97
2022-09-09T04:40:04.078Z,4.05
2022-09-09T04:42:36.882Z,3.75
2022-09-09T04:45:05.613Z,3.58
2022-09-09T04:47:37.032Z,3.53
2022-09-09T04:50:06.370Z,3.75
2022-09-09T04:52:36.756Z,4.10
2022-09-09T04:55:05.377Z,4.07
2022-09-09T04:57:34.199Z,4.35
2022-09-09T05:00:06.728Z,3.90
2022-09-09T05:02:40.049Z,4.93
2022-09-09T05:05:08.415Z,4.13
2022-09-09T05:07:38.367Z,4.47
2022-09-09T05:10:07.214Z,3.60
2022-09-09T05:12:35.578Z,4.18
2022-09-09T05:15:03.643Z,4.22
2022-09-09T05:17:32.590Z,3.50
2022-09-09T05:20:00.887Z,3.70
2022-09-09T05:22:28.974Z,3.78
2022-09-09T05:24:58.867Z,4.57
2022-09-09T05:27:27.237Z,4.32
2022-09-09T05:29:55.989Z,4.45
2022-09-09T05:32:24.412Z,4.47
2022-09-09T05:34:53.319Z,4.63
2022-09-09T05:37:20.928Z,5.00
2022-09-09T05:39:48.758Z,4.93
2022-09-09T05:42:18.335Z,4.97
2022-09-09T05:44:46.113Z,5.50
2022-09-09T05:47:13.778Z,5.38
2022-09-09T05:49:42.949Z,5.25
2022-09-09T05:52:11.445Z,6.50
2022-09-09T05:54:38.942Z,5.97
2022-09-09T05:57:07.032Z,6.15
2022-09-09T05:59:34.728Z,5.72
2022-09-09T06:02:04.268Z,6.13
2022-09-09T06:04:36.918Z,5.53
2022-09-09T06:07:06.896Z,5.32
2022-09-09T06:09:34.944Z,5.53
2022-09-09T06:12:03.527Z,5.60
2022-09-09T06:14:34.799Z,6.63
2022-09-09T06:17:03.935Z,5.45
2022-09-09T06:19:32.473Z,5.97
2022-09-09T06:22:01.501Z,6.03
2022-09-09T06:24:32.619Z,6.65
2022-09-09T06:29:33.579Z,6.13
2022-09-09T06:32:04.334Z,6.57
2022-09-09T06:34:33.259Z,7.07
2022-09-09T06:37:01.691Z,6.70
2022-09-09T06:39:38.491Z,6.53
2022-09-09T06:42:06.574Z,6.10
2022-09-09T06:44:53.411Z,6.60
2022-09-09T06:47:44.773Z,5.57
2022-09-09T06:50:12.720Z,5.53
2022-09-09T06:52:41.154Z,6.05
2022-09-09T06:55:10.918Z,5.43
2022-09-09T06:57:39.562Z,5.43
2022-09-09T07:00:14.984Z,5.35
2022-09-09T07:02:42.551Z,4.80
2022-09-09T07:05:11.913Z,4.85
2022-09-09T07:07:42.169Z,4.45
2022-09-09T07:10:11.819Z,4.82
2022-09-09T07:12:39.868Z,4.90
2022-09-09T07:15:11.715Z,5.45
2022-09-09T07:17:42.479Z,4.60
2022-09-09T07:20:10.289Z,5.18
2022-09-09T07:22:37.973Z,4.68
2022-09-09T07:25:06.531Z,4.75
2022-09-09T07:27:34.956Z,4.63
2022-09-09T07:30:03.812Z,4.80
2022-09-09T07:32:33.927Z,4.30
2022-09-09T07:35:01.716Z,4.18
2022-09-09T07:37:29.894Z,3.80
2022-09-09T07:39:57.772Z,5.20
2022-09-09T07:42:26.128Z,4.63
2022-09-09T07:44:55.965Z,5.55
2022-09-09T07:47:25.936Z,4.72
2022-09-09T07:49:53.705Z,4.60
2022-09-09T07:52:26.805Z,4.22
2022-09-09T07:54:58.529Z,4.40
2022-09-09T07:57:26.261Z,4.63
2022-09-09T07:59:55.518Z,4.75
2022-09-09T08:02:24.645Z,4.90
2022-09-09T08:04:52.695Z,5.05
2022-09-09T08:07:22.603Z,4.53
2022-09-09T08:09:56.875Z,4.72
2022-09-09T08:12:29.289Z,4.70
2022-09-09T08:14:57.887Z,4.00
2022-09-09T08:17:30.107Z,5.05
2022-09-09T08:22:35.404Z,3.83
2022-09-09T08:25:03.754Z,4.57
2022-09-09T08:27:33.371Z,4.95
2022-09-09T08:30:01.281Z,4.45
2022-09-09T08:32:31.228Z,4.20
2022-09-09T08:35:08.128Z,4.32
2022-09-09T08:40:06.959Z,4.38
2022-09-09T08:42:51.616Z,4.03
2022-09-09T08:45:25.920Z,4.75
2022-09-09T08:47:58.167Z,4.53
2022-09-09T08:50:36.773Z,4.70
2022-09-09T08:53:23.093Z,4.57
2022-09-09T08:56:02.693Z,4.50
2022-09-09T08:58:55.797Z,3.85
2022-09-09T09:02:12.302Z,4.60
2022-09-09T09:05:05.551Z,4.88
2022-09-09T09:07:54.838Z,4.50
2022-09-09T09:10:41.803Z,4.80
2022-09-09T09:13:26.931Z,4.93
2022-09-09T09:16:07.773Z,4.63
2022-09-09T09:18:36.748Z,4.88
2022-09-09T09:21:20.275Z,4.13
2022-09-09T09:23:58.873Z,3.85
2022-09-09T09:26:36.350Z,4.47
2022-09-09T09:29:17.172Z,4.72
2022-09-09T09:31:56.568Z,4.78
2022-09-09T09:34:26.206Z,4.53
2022-09-09T09:37:02.708Z,5.05
2022-09-09T09:42:27.884Z,4.72
2022-09-09T09:45:08.015Z,5.03
2022-09-09T09:47:36.100Z,5.10
2022-09-09T09:50:20.494Z,5.40
2022-09-09T09:52:58.572Z,5.25
2022-09-09T09:55:31.057Z,5.30
2022-09-09T09:58:18.419Z,5.85
2022-09-09T10:00:52.326Z,7.00
2022-09-09T10:03:30.851Z,6.45
2022-09-09T10:05:59.720Z,6.75
2022-09-09T10:08:28.711Z,6.28
2022-09-09T10:11:05.132Z,7.47
2022-09-09T10:13:55.761Z,6.13
2022-09-09T10:16:39.987Z,6.50
2022-09-09T10:19:15.801Z,7.22
2022-09-09T10:22:31.809Z,7.35
2022-09-09T10:25:23.819Z,6.93
2022-09-09T10:28:32.153Z,7.63
2022-09-09T10:31:17.447Z,8.27
2022-09-09T10:34:00.278Z,8.20
2022-09-09T10:36:29.403Z,8.30
2022-09-09T10:39:09.176Z,8.20
2022-09-09T10:41:40.166Z,8.60
2022-09-09T10:44:30.890Z,7.53
2022-09-09T10:47:27.994Z,7.40
2022-09-09T10:50:06.211Z,7.00
2022-09-09T10:52:42.761Z,7.22
2022-09-09T10:57:48.890Z,6.90
2022-09-09T11:00:46.442Z,7.30
2022-09-09T11:03:26.149Z,6.50
2022-09-09T11:06:11.343Z,6.50
2022-09-09T11:08:40.563Z,6.90
2022-09-09T11:11:13.000Z,6.63
2022-09-09T11:13:55.402Z,6.95
2022-09-09T11:16:44.684Z,7.85
2022-09-09T11:19:41.568Z,7.45
2022-09-09T11:22:35.326Z,6.57
2022-09-09T11:25:19.074Z,6.55
2022-09-09T11:28:12.484Z,6.90
2022-09-09T11:30:56.557Z,5.97
2022-09-09T11:33:43.032Z,6.40
2022-09-09T11:36:13.677Z,4.88
2022-09-09T11:38:59.208Z,4.53
2022-09-09T11:41:35.733Z,3.90
2022-09-09T11:44:12.632Z,3.00
2022-09-09T11:46:42.812Z,2.90
2022-09-09T11:49:30.505Z,2.95
2022-09-09T11:51:58.540Z,2.70
2022-09-09T11:54:35.404Z,2.92
2022-09-09T11:57:05.758Z,3.05
2022-09-09T11:59:34.328Z,3.17
2022-09-09T12:02:11.262Z,2.80
2022-09-09T12:04:45.775Z,3.42
2022-09-09T12:07:41.062Z,3.15
2022-09-09T12:10:31.422Z,3.85
2022-09-09T12:13:16.194Z,3.22
2022-09-09T12:15:52.844Z,3.05
2022-09-09T12:18:45.499Z,2.67
2022-09-09T12:21:33.143Z,2.30
2022-09-09T12:24:14.160Z,2.63
2022-09-09T12:26:54.887Z,2.92
2022-09-09T12:29:51.001Z,2.90
2022-09-09T12:32:24.165Z,3.00
2022-09-09T12:34:57.478Z,3.13
2022-09-09T12:37:45.245Z,2.78
2022-09-09T12:40:36.087Z,3.10
2022-09-09T12:43:22.516Z,2.72
2022-09-09T12:45:58.805Z,3.35
2022-09-09T12:48:35.823Z,2.97
2022-09-09T12:51:06.284Z,3.00
2022-09-09T12:53:37.676Z,2.80
2022-09-09T12:56:11.389Z,3.05
2022-09-09T12:58:39.561Z,3.00
2022-09-09T13:01:19.826Z,2.70
2022-09-09T13:03:48.293Z,2.55
2022-09-09T13:06:28.047Z,3.00
2022-09-09T13:08:59.849Z,2.90
2022-09-09T13:11:40.729Z,2.58
2022-09-09T13:14:14.686Z,2.60
2022-09-09T13:16:43.226Z,2.60
2022-09-09T13:19:18.347Z,2.42
2022-09-09T13:21:45.962Z,2.85
2022-09-09T13:24:35.049Z,2.70
2022-09-09T13:27:25.593Z,3.05
2022-09-09T13:29:58.013Z,3.17
2022-09-09T13:32:29.803Z,2.63
2022-09-09T13:34:59.783Z,3.08
2022-09-09T13:37:31.021Z,2.38
2022-09-09T13:39:58.880Z,2.88
2022-09-09T13:42:29.410Z,2.50
2022-09-09T13:44:59.087Z,2.92
2022-09-09T13:47:37.790Z,2.75
2022-09-09T13:50:22.021Z,2.20
2022-09-09T13:52:52.408Z,2.50
2022-09-09T13:55:22.715Z,2.70
2022-09-09T13:57:55.336Z,2.78
2022-09-09T14:00:25.174Z,2.63
2022-09-09T14:02:53.201Z,2.97
2022-09-09T14:05:21.633Z,3.08
2022-09-09T14:07:53.052Z,2.80
2022-09-09T14:10:22.421Z,3.13
2022-09-09T14:12:49.996Z,2.92
2022-09-09T14:15:17.612Z,2.65
2022-09-09T14:17:45.459Z,3.08
2022-09-09T14:20:16.327Z,2.67
2022-09-09T14:22:45.294Z,2.95
2022-09-09T14:25:16.287Z,2.70
2022-09-09T14:27:44.318Z,2.47
2022-09-09T14:30:14.654Z,2.42
2022-09-09T14:32:42.279Z,2.50
2022-09-09T14:35:10.006Z,2.08
2022-09-09T14:37:37.917Z,2.30
2022-09-09T14:40:06.055Z,2.20
2022-09-09T14:42:39.664Z,2.35
2022-09-09T14:45:08.198Z,2.60
2022-09-09T14:47:35.742Z,2.08
2022-09-09T14:50:05.086Z,2.15
2022-09-09T14:52:32.658Z,1.98
2022-09-09T14:55:00.900Z,2.00
2022-09-09T14:57:29.032Z,2.33
2022-09-09T14:59:57.851Z,2.13
2022-09-09T15:02:25.567Z,1.88
2022-09-09T15:04:54.124Z,2.05
2022-09-09T15:07:22.550Z,1.92
2022-09-09T15:09:50.681Z,1.55
2022-09-09T15:12:19.797Z,1.70
2022-09-09T15:14:48.129Z,1.48
2022-09-09T15:17:15.807Z,1.70
2022-09-09T15:19:43.647Z,1.45
2022-09-09T15:22:11.225Z,1.10
2022-09-09T15:24:38.718Z,1.42
2022-09-09T15:27:07.363Z,1.55
2022-09-09T15:29:34.921Z,1.38
2022-09-09T15:32:03.285Z,1.25
2022-09-09T15:34:30.864Z,1.20
2022-09-09T15:37:00.986Z,1.50
2022-09-09T15:39:29.264Z,1.33
2022-09-09T15:41:57.817Z,0.90
2022-09-09T15:44:26.531Z,1.25
2022-09-09T15:46:57.651Z,1.10
2022-09-09T15:49:27.098Z,1.20
2022-09-09T15:51:58.310Z,1.00
2022-09-09T15:54:27.458Z,1.10
2022-09-09T15:57:00.889Z,1.48
2022-09-09T15:59:32.038Z,1.48
2022-09-09T16:02:01.199Z,1.67
2022-09-09T16:04:30.085Z,1.60
2022-09-09T16:07:04.674Z,1.48
2022-09-09T16:09:33.677Z,1.40
2022-09-09T16:12:04.030Z,1.90
2022-09-09T16:14:35.162Z,2.10
2022-09-09T16:17:04.448Z,2.72
2022-09-09T16:19:32.726Z,3.25
2022-09-09T16:22:01.215Z,2.17
2022-09-09T16:24:29.324Z,1.52
2022-09-09T16:26:57.549Z,2.60
2022-09-09T16:29:28.216Z,3.80
2022-09-09T16:32:01.219Z,5.05
2022-09-09T16:34:31.229Z,5.72
2022-09-09T16:36:58.623Z,5.78
2022-09-09T16:39:26.791Z,4.07
2022-09-09T16:41:54.360Z,2.58
2022-09-09T16:44:21.914Z,2.60
2022-09-09T16:46:55.598Z,3.05
2022-09-09T16:49:25.680Z,3.90
2022-09-09T16:51:55.988Z,6.03
2022-09-09T16:54:24.446Z,9.95
2022-09-09T16:56:52.126Z,26.50
2022-09-09T16:59:21.772Z,30.65
2022-09-09T17:01:51.647Z,11.38
2022-09-09T17:04:26.442Z,6.55
2022-09-09T17:06:55.579Z,6.40
2022-09-09T17:09:25.740Z,6.10
2022-09-09T17:11:54.864Z,6.80
2022-09-09T17:14:23.596Z,4.30
2022-09-09T17:16:51.458Z,3.95
2022-09-09T17:19:19.203Z,5.03
2022-09-09T17:22:15.553Z,3.92
2022-09-09T17:24:39.354Z,4.13
2022-09-09T17:27:07.501Z,3.42
2022-09-09T17:29:37.022Z,3.47
2022-09-09T17:32:06.572Z,3.92
2022-09-09T17:34:35.267Z,4.20
2022-09-09T17:37:03.103Z,4.53
2022-09-09T17:39:30.742Z,4.28
2022-09-09T17:41:58.362Z,4.30
2022-09-09T17:44:25.843Z,5.00
2022-09-09T17:46:53.508Z,3.75
2022-09-09T17:49:21.005Z,3.88
2022-09-09T17:51:48.550Z,5.20
2022-09-09T17:54:19.338Z,5.22
2022-09-09T17:56:48.206Z,5.43
2022-09-09T17:59:18.585Z,5.13
2022-09-09T18:01:49.830Z,5.03
2022-09-09T18:04:18.520Z,5.03
2022-09-09T18:06:51.730Z,4.57
2022-09-09T18:09:23.226Z,5.00
2022-09-09T18:11:54.585Z,5.10
2022-09-09T18:14:28.826Z,5.45
2022-09-09T18:16:57.179Z,5.22
2022-09-09T18:19:27.410Z,5.15
2022-09-09T18:21:57.473Z,5.15
2022-09-09T18:24:28.117Z,5.80
2022-09-09T18:26:55.659Z,5.28
2022-09-09T18:29:27.542Z,4.95
2022-09-09T18:31:56.100Z,4.78
2022-09-09T18:34:25.898Z,4.40
2022-09-09T18:36:55.817Z,5.10
2022-09-09T18:39:27.217Z,4.70
2022-09-09T18:41:59.217Z,4.28
2022-09-09T18:44:30.235Z,3.20
2022-09-09T18:46:58.021Z,4.10
2022-09-09T18:49:26.452Z,4.30
2022-09-09T18:51:54.317Z,3.63
2022-09-09T18:54:29.645Z,3.75
2022-09-09T18:56:59.529Z,4.18
2022-09-09T18:59:28.347Z,3.72
2022-09-09T19:01:56.291Z,4.00
2022-09-09T19:04:25.493Z,4.20
2022-09-09T19:06:57.717Z,4.03
2022-09-09T19:09:31.546Z,4.78
2022-09-09T19:12:00.943Z,3.72
2022-09-09T19:14:29.241Z,4.38
2022-09-09T19:16:56.955Z,4.75
2022-09-09T19:19:31.356Z,4.93
2022-09-09T19:22:00.086Z,5.05
2022-09-09T19:24:32.872Z,4.97
2022-09-09T19:27:04.413Z,5.05
2022-09-09T19:29:33.969Z,5.80
2022-09-09T19:32:49.193Z,5.82
2022-09-09T19:34:51.629Z,6.47
2022-09-09T19:37:19.705Z,6.28
2022-09-09T19:39:48.063Z,6.20
2022-09-09T19:42:15.908Z,6.43
2022-09-09T19:44:43.785Z,6.95
2022-09-09T19:47:13.181Z,6.00
2022-09-09T19:49:42.959Z,5.75
2022-09-09T19:52:14.057Z,5.43
2022-09-09T19:54:41.905Z,5.60
2022-09-09T19:57:10.120Z,5.68
2022-09-09T19:59:37.778Z,5.95
2022-09-09T20:02:05.473Z,6.32
2022-09-09T20:04:35.442Z,6.20
2022-09-09T20:07:02.978Z,5.38
2022-09-09T20:09:30.641Z,5.68
2022-09-09T20:11:58.636Z,5.32
2022-09-09T20:14:26.552Z,5.05
2022-09-09T20:16:54.531Z,4.60
2022-09-09T20:19:22.135Z,4.70
2022-09-09T20:21:50.100Z,4.88
2022-09-09T20:24:20.457Z,4.45
2022-09-09T20:26:49.134Z,3.92
2022-09-09T20:29:18.940Z,4.18
2022-09-09T20:31:47.561Z,4.20
2022-09-09T20:34:18.908Z,3.90
2022-09-09T20:36:47.332Z,3.95
2022-09-09T20:39:18.057Z,4.20
2022-09-09T20:41:46.583Z,4.53
2022-09-09T20:44:20.031Z,3.47
2022-09-09T20:46:50.044Z,4.13
2022-09-09T20:49:20.170Z,5.28
2022-09-09T20:51:50.502Z,4.25
2022-09-09T20:54:23.444Z,3.65
2022-09-09T20:56:52.739Z,4.43
2022-09-09T20:59:22.217Z,4.28
2022-09-09T21:01:51.027Z,4.07
2022-09-09T21:04:20.997Z,3.60
2022-09-09T21:09:18.577Z,4.93
2022-09-09T21:11:47.398Z,4.38
2022-09-09T21:14:15.329Z,4.15
2022-09-09T21:16:43.286Z,4.40
2022-09-09T21:19:11.047Z,3.63
2022-09-09T21:21:39.592Z,4.40
2022-09-09T21:24:07.549Z,4.57
2022-09-09T21:26:35.982Z,4.63
2022-09-09T21:29:03.713Z,4.55
2022-09-09T21:31:32.998Z,4.63
2022-09-09T21:34:01.513Z,4.35
2022-09-09T21:36:29.715Z,4.00
2022-09-09T21:38:59.234Z,4.32
2022-09-09T21:41:27.287Z,5.25
2022-09-09T21:43:55.340Z,4.80
2022-09-09T21:46:23.829Z,4.40
2022-09-09T21:48:51.678Z,5.30
2022-09-09T21:51:19.643Z,4.90
2022-09-09T21:53:47.249Z,4.40
2022-09-09T21:56:17.620Z,5.32
2022-09-09T22:01:17.642Z,4.53
2022-09-09T22:03:46.456Z,5.03
2022-09-09T22:06:16.587Z,5.15
2022-09-09T22:11:16.959Z,5.45
2022-09-09T22:13:48.967Z,5.45
2022-09-09T22:16:20.075Z,5.90
2022-09-09T22:18:52.945Z,6.03
2022-09-09T22:21:20.583Z,6.22
2022-09-09T22:23:55.257Z,6.55
2022-09-09T22:26:23.991Z,6.15
2022-09-09T22:28:53.787Z,6.70
2022-09-09T22:31:23.234Z,6.80
2022-09-09T22:33:54.761Z,7.50
2022-09-09T22:36:23.107Z,7.20
2022-09-09T22:38:51.834Z,6.65
2022-09-09T22:41:20.304Z,6.78
2022-09-09T22:43:48.143Z,7.80
2022-09-09T22:46:16.743Z,6.82
2022-09-09T22:48:44.844Z,7.65
2022-09-09T22:51:14.736Z,8.05
2022-09-09T22:53:44.964Z,7.47
2022-09-09T22:56:18.379Z,7.93
2022-09-09T22:58:46.712Z,7.97
2022-09-09T23:01:17.272Z,7.28
2022-09-09T23:03:46.614Z,8.05
2022-09-09T23:06:22.391Z,8.05
2022-09-09T23:08:56.133Z,8.13
2022-09-09T23:11:28.048Z,8.52
2022-09-09T23:14:00.584Z,8.48
2022-09-09T23:16:34.550Z,8.52
2022-09-09T23:19:02.491Z,8.43
2022-09-09T23:21:31.487Z,8.40
2022-09-09T23:24:00.444Z,8.23
2022-09-09T23:26:29.886Z,8.85
2022-09-09T23:28:59.941Z,7.65
2022-09-09T23:31:30.570Z,8.80
2022-09-09T23:33:59.859Z,9.98
2022-09-09T23:36:29.849Z,8.90
2022-09-09T23:39:03.778Z,9.82
2022-09-09T23:41:33.175Z,9.45
2022-09-09T23:44:01.802Z,8.93
2022-09-09T23:46:30.822Z,8.32
2022-09-09T23:48:59.027Z,8.80
2022-09-09T23:51:30.622Z,9.18
2022-09-09T23:54:03.118Z,9.15
2022-09-09T23:56:37.943Z,9.77
2022-09-09T23:59:07.065Z,9.23
